Terminal Aerodrome Forecast
Issued by NWS

Home | Current Version | Previous Version | Text Only | Print | Product List | Glossary Off
Versions: 1 2 3 4 5 6 7 8 9 10 11 12 13 14 15 16 17 18 19 20 21 22

000
FTUS43 KICT 230700 AAA
TAFRSL
TAF AMD
KRSL 230758Z 2308/2406 21007KT P6SM OVC015
     FM231100 VRB04KT 4SM BR SCT006 OVC009
     FM231600 VRB05KT P6SM OVC015=

USA.gov is the U.S. government's official web portal to all federal, state and local government web resources and services.